createdAt,value
2018-05-27T00:01:42.848Z,13.60
2018-05-27T00:04:09.240Z,13.50
2018-05-27T00:06:35.640Z,13.30
2018-05-27T00:09:02.857Z,13.30
2018-05-27T00:11:29.278Z,13.20
2018-05-27T00:13:55.787Z,13.30
2018-05-27T00:16:22.163Z,13.30
2018-05-27T00:18:48.537Z,13.30
2018-05-27T00:21:14.984Z,13.20
2018-05-27T00:23:41.376Z,13.20
2018-05-27T00:26:07.758Z,13.30
2018-05-27T00:28:34.182Z,13.30
2018-05-27T00:31:00.574Z,13.30
2018-05-27T00:33:26.956Z,13.30
2018-05-27T00:35:53.343Z,13.30
2018-05-27T00:38:19.745Z,13.30
2018-05-27T00:40:46.164Z,13.20
2018-05-27T00:43:12.561Z,13.20
2018-05-27T00:45:39.729Z,13.20
2018-05-27T00:48:06.103Z,13.20
2018-05-27T00:50:32.495Z,13.20
2018-05-27T00:52:58.888Z,13.20
2018-05-27T00:55:25.271Z,13.20
2018-05-27T00:57:51.677Z,13.10
2018-05-27T01:00:18.812Z,13.10
2018-05-27T01:02:45.189Z,13.00
2018-05-27T01:05:11.592Z,13.10
2018-05-27T01:07:38.727Z,13.10
2018-05-27T01:10:05.110Z,13.00
2018-05-27T01:12:31.508Z,13.10
2018-05-27T01:14:58.665Z,13.00
2018-05-27T01:17:25.775Z,13.00
2018-05-27T01:19:52.215Z,12.90
2018-05-27T01:22:18.611Z,12.90
2018-05-27T01:24:44.972Z,12.90
2018-05-27T01:27:11.362Z,12.90
2018-05-27T01:29:38.500Z,12.90
2018-05-27T01:32:05.606Z,13.00
2018-05-27T01:34:31.987Z,12.90
2018-05-27T01:36:59.186Z,13.00
2018-05-27T01:39:25.557Z,12.90
2018-05-27T01:41:51.943Z,13.00
2018-05-27T01:44:18.331Z,13.00
2018-05-27T01:46:44.721Z,13.00
2018-05-27T01:49:11.152Z,13.10
2018-05-27T01:51:37.568Z,13.00
2018-05-27T01:54:03.937Z,13.00
2018-05-27T01:56:30.464Z,12.90
2018-05-27T01:58:56.836Z,12.80
2018-05-27T02:01:23.220Z,12.70
2018-05-27T02:03:49.644Z,12.70
2018-05-27T02:06:16.013Z,12.60
2018-05-27T02:08:42.411Z,12.50
2018-05-27T02:11:08.805Z,12.40
2018-05-27T02:13:35.196Z,12.50
2018-05-27T02:16:01.621Z,12.50
2018-05-27T02:18:28.016Z,12.40
2018-05-27T02:20:55.139Z,12.40
2018-05-27T02:23:21.541Z,12.40
2018-05-27T02:25:47.931Z,12.30
2018-05-27T02:28:14.300Z,12.30
2018-05-27T02:30:40.700Z,12.20
2018-05-27T02:33:07.851Z,12.20
2018-05-27T02:35:34.973Z,12.20
2018-05-27T02:38:01.369Z,12.10
2018-05-27T02:40:27.776Z,12.20
2018-05-27T02:42:54.910Z,12.20
2018-05-27T02:45:21.307Z,12.10
2018-05-27T02:47:47.697Z,12.20
2018-05-27T02:50:14.803Z,12.20
2018-05-27T02:52:41.205Z,12.10
2018-05-27T02:55:07.605Z,12.20
2018-05-27T02:57:33.980Z,12.20
2018-05-27T03:00:00.532Z,12.20
2018-05-27T03:02:26.967Z,12.20
2018-05-27T03:04:53.336Z,12.10
2018-05-27T03:07:19.768Z,12.20
2018-05-27T03:09:46.159Z,12.20
2018-05-27T03:12:12.535Z,12.20
2018-05-27T03:14:38.941Z,12.30
2018-05-27T03:17:05.368Z,12.40
2018-05-27T03:19:31.747Z,12.40
2018-05-27T03:21:58.156Z,12.30
2018-05-27T03:24:24.559Z,12.30
2018-05-27T03:26:50.948Z,12.30
2018-05-27T03:29:18.094Z,12.30
2018-05-27T03:31:44.501Z,12.20
2018-05-27T03:34:10.868Z,12.20
2018-05-27T03:36:37.327Z,12.20
2018-05-27T03:39:04.557Z,12.20
2018-05-27T03:41:30.917Z,12.10
2018-05-27T03:43:57.300Z,12.20
2018-05-27T03:46:23.705Z,12.30
2018-05-27T03:48:50.075Z,12.40
2018-05-27T03:51:16.468Z,12.60
2018-05-27T03:53:42.860Z,12.70
2018-05-27T03:56:09.312Z,12.90
2018-05-27T03:58:36.463Z,12.90
2018-05-27T04:01:03.609Z,12.90
2018-05-27T04:03:30.740Z,13.00
2018-05-27T04:06:09.344Z,13.00
2018-05-27T04:08:35.758Z,13.60
2018-05-27T04:11:02.167Z,14.00
2018-05-27T04:13:28.564Z,14.30
2018-05-27T04:15:55.036Z,14.60
2018-05-27T04:18:21.444Z,14.60
2018-05-27T04:20:48.581Z,14.40
2018-05-27T04:23:14.944Z,14.40
2018-05-27T04:25:42.080Z,15.20
2018-05-27T04:28:09.230Z,15.70
2018-05-27T04:30:36.339Z,16.00
2018-05-27T04:33:02.745Z,15.90
2018-05-27T04:35:29.111Z,15.80
2018-05-27T04:37:55.511Z,16.10
2018-05-27T04:40:21.907Z,16.70
2018-05-27T04:42:48.276Z,17.30
2018-05-27T04:45:14.680Z,17.50
2018-05-27T04:47:41.821Z,18.00
2018-05-27T04:50:08.939Z,18.70
2018-05-27T04:52:35.360Z,18.60
2018-05-27T04:55:01.765Z,19.40
2018-05-27T04:57:28.879Z,20.00
2018-05-27T04:59:55.272Z,20.00
2018-05-27T05:02:21.668Z,20.30
2018-05-27T05:04:48.043Z,20.30
2018-05-27T05:07:14.457Z,20.50
2018-05-27T05:09:41.596Z,20.90
2018-05-27T05:12:08.709Z,21.10
2018-05-27T05:14:35.111Z,21.00
2018-05-27T05:17:01.509Z,21.60
2018-05-27T05:19:28.656Z,21.60
2018-05-27T05:21:55.082Z,21.60
2018-05-27T05:24:21.453Z,21.90
2018-05-27T05:26:47.855Z,22.30
2018-05-27T05:29:14.256Z,22.20
2018-05-27T05:31:40.620Z,22.00
2018-05-27T05:34:07.024Z,22.50
2018-05-27T05:36:33.411Z,22.40
2018-05-27T05:39:00.524Z,22.70
2018-05-27T05:41:26.924Z,22.60
2018-05-27T05:43:53.327Z,22.50
2018-05-27T05:46:20.439Z,22.20
2018-05-27T05:48:46.831Z,22.10
2018-05-27T05:51:13.192Z,22.90
2018-05-27T05:53:39.415Z,23.80
2018-05-27T05:56:05.641Z,24.30
2018-05-27T05:58:31.854Z,24.20
2018-05-27T06:00:58.070Z,23.70
2018-05-27T06:03:25.010Z,21.80
2018-05-27T06:05:51.975Z,21.00
2018-05-27T06:08:18.192Z,20.90
2018-05-27T06:10:45.138Z,20.40
2018-05-27T06:13:12.098Z,20.30
2018-05-27T06:15:38.343Z,20.20
2018-05-27T06:18:04.558Z,20.10
2018-05-27T06:20:30.778Z,19.90
2018-05-27T06:22:57.735Z,20.10
2018-05-27T06:25:23.951Z,20.10
2018-05-27T06:27:50.899Z,20.30
2018-05-27T06:30:17.863Z,20.30
2018-05-27T06:32:44.085Z,20.20
2018-05-27T06:35:10.279Z,20.40
2018-05-27T06:37:36.496Z,20.50
2018-05-27T06:40:02.762Z,20.40
2018-05-27T06:42:29.704Z,20.80
2018-05-27T06:44:56.673Z,21.00
2018-05-27T06:47:22.898Z,20.90
2018-05-27T06:49:49.839Z,21.00
2018-05-27T06:52:16.798Z,21.00
2018-05-27T06:54:43.019Z,20.90
2018-05-27T06:57:09.946Z,21.40
2018-05-27T06:59:36.905Z,21.60
2018-05-27T07:02:03.881Z,21.90
2018-05-27T07:04:30.116Z,21.80
2018-05-27T07:06:56.322Z,22.20
2018-05-27T07:09:23.310Z,21.70
2018-05-27T07:11:49.511Z,21.60
2018-05-27T07:14:15.735Z,21.60
2018-05-27T07:16:41.978Z,21.80
2018-05-27T07:19:08.176Z,21.90
2018-05-27T07:21:35.133Z,22.20
2018-05-27T07:24:02.099Z,22.30
2018-05-27T07:26:28.296Z,22.30
2018-05-27T07:28:55.256Z,22.70
2018-05-27T07:31:22.219Z,23.00
2018-05-27T07:33:58.624Z,22.90
2018-05-27T07:36:24.983Z,23.20
2018-05-27T07:38:51.961Z,23.30
2018-05-27T07:41:18.191Z,23.30
2018-05-27T07:43:44.418Z,23.40
2018-05-27T07:46:10.667Z,23.50
2018-05-27T07:48:36.943Z,23.70
2018-05-27T07:51:03.168Z,24.00
2018-05-27T07:53:30.147Z,23.90
2018-05-27T07:55:57.109Z,24.10
2018-05-27T07:58:23.319Z,24.00
2018-05-27T08:00:50.300Z,24.70
2018-05-27T08:03:16.728Z,24.60
2018-05-27T08:05:43.128Z,24.70
2018-05-27T08:08:10.258Z,24.50
2018-05-27T08:10:36.651Z,24.40
2018-05-27T08:13:03.104Z,24.00
2018-05-27T08:15:29.477Z,24.20
2018-05-27T08:17:56.727Z,24.10
2018-05-27T08:20:25.646Z,24.10
2018-05-27T08:22:54.269Z,23.90
2018-05-27T08:25:22.412Z,24.10
2018-05-27T08:27:51.076Z,23.90
2018-05-27T08:30:21.439Z,23.90
2018-05-27T08:32:52.187Z,24.10
2018-05-27T08:37:39.652Z,24.40
2018-05-27T08:40:07.991Z,24.50
2018-05-27T08:42:36.628Z,24.80
2018-05-27T08:45:09.398Z,24.80
2018-05-27T08:47:41.431Z,24.90
2018-05-27T08:50:09.873Z,24.40
2018-05-27T08:52:38.220Z,24.50
2018-05-27T08:55:04.875Z,24.40
2018-05-27T08:57:31.252Z,24.20
2018-05-27T08:59:57.660Z,24.40
2018-05-27T09:02:24.042Z,24.40
2018-05-27T09:04:51.199Z,24.70
2018-05-27T09:07:18.807Z,24.20
2018-05-27T09:09:46.069Z,24.70
2018-05-27T09:12:13.182Z,25.10
2018-05-27T09:14:39.595Z,25.10
2018-05-27T09:17:05.968Z,24.70
2018-05-27T09:19:32.409Z,24.90
2018-05-27T09:21:58.803Z,25.10
2018-05-27T09:24:25.191Z,25.30
2018-05-27T09:26:52.337Z,25.40
2018-05-27T09:29:19.446Z,24.70
2018-05-27T09:31:45.840Z,24.70
2018-05-27T09:34:17.698Z,25.10
2018-05-27T09:36:44.875Z,25.20
2018-05-27T09:39:11.293Z,25.10
2018-05-27T09:41:37.764Z,25.50
2018-05-27T09:44:04.170Z,25.60
2018-05-27T09:46:30.738Z,25.60
2018-05-27T09:48:57.232Z,25.30
2018-05-27T09:51:24.428Z,25.40
2018-05-27T09:53:50.909Z,25.40
2018-05-27T09:56:18.051Z,25.20
2018-05-27T09:58:44.500Z,25.20
2018-05-27T10:01:11.701Z,25.60
2018-05-27T10:03:38.096Z,25.50
2018-05-27T10:06:05.237Z,26.00
2018-05-27T10:08:32.366Z,26.50
2018-05-27T10:10:58.760Z,26.40
2018-05-27T10:13:25.204Z,26.50
2018-05-27T10:15:51.592Z,27.00
2018-05-27T10:18:18.728Z,27.30
2018-05-27T10:20:45.113Z,27.30
2018-05-27T10:23:11.736Z,27.20
2018-05-27T10:25:38.121Z,27.40
2018-05-27T10:28:04.521Z,27.10
2018-05-27T10:30:30.908Z,27.20
2018-05-27T10:32:58.031Z,27.20
2018-05-27T10:35:24.453Z,27.20
2018-05-27T10:37:51.239Z,27.90
2018-05-27T10:40:18.552Z,28.10
2018-05-27T10:42:44.937Z,28.10
2018-05-27T10:45:12.063Z,28.00
2018-05-27T10:47:38.601Z,27.90
2018-05-27T10:50:05.001Z,27.50
2018-05-27T10:52:31.368Z,28.10
2018-05-27T10:54:57.761Z,27.70
2018-05-27T10:57:24.816Z,28.00
2018-05-27T10:59:51.270Z,28.30
2018-05-27T11:02:18.405Z,28.20
2018-05-27T11:04:44.833Z,27.90
2018-05-27T11:07:11.233Z,28.00
2018-05-27T11:09:38.510Z,28.00
2018-05-27T11:12:05.018Z,27.90
2018-05-27T11:14:33.852Z,27.40
2018-05-27T11:17:01.128Z,27.20
2018-05-27T11:19:27.542Z,27.10
2018-05-27T11:21:53.920Z,27.30
2018-05-27T11:24:21.064Z,27.30
2018-05-27T11:26:47.481Z,27.20
2018-05-27T11:29:13.867Z,27.00
2018-05-27T11:31:40.255Z,27.10
2018-05-27T11:34:06.641Z,27.20
2018-05-27T11:36:33.033Z,27.30
2018-05-27T11:38:59.536Z,26.90
2018-05-27T11:41:25.939Z,26.80
2018-05-27T11:43:52.313Z,26.40
2018-05-27T11:46:18.716Z,26.40
2018-05-27T11:48:45.212Z,26.60
2018-05-27T11:51:11.617Z,26.60
2018-05-27T11:53:38.000Z,26.60
2018-05-27T11:56:05.136Z,26.30
2018-05-27T11:58:31.503Z,26.20
2018-05-27T12:00:57.891Z,26.40
2018-05-27T12:03:24.268Z,26.70
2018-05-27T12:05:50.722Z,26.70
2018-05-27T12:08:17.131Z,27.10
2018-05-27T12:10:43.575Z,26.70
2018-05-27T12:13:10.023Z,27.10
2018-05-27T12:15:36.418Z,26.80
2018-05-27T12:18:03.558Z,27.00
2018-05-27T12:20:30.701Z,27.20
2018-05-27T12:22:57.072Z,27.20
2018-05-27T12:25:23.472Z,27.20
2018-05-27T12:27:49.917Z,27.50
2018-05-27T12:30:17.056Z,27.20
2018-05-27T12:32:43.424Z,27.20
2018-05-27T12:35:09.837Z,27.10
2018-05-27T12:37:36.948Z,27.30
2018-05-27T12:40:03.377Z,27.30
2018-05-27T12:42:29.738Z,27.10
2018-05-27T12:44:56.141Z,27.20
2018-05-27T12:47:22.523Z,27.50
2018-05-27T12:49:49.673Z,26.80
2018-05-27T12:52:16.817Z,27.00
2018-05-27T12:54:43.203Z,27.00
2018-05-27T12:57:09.615Z,26.80
2018-05-27T12:59:35.987Z,26.90
2018-05-27T13:02:02.413Z,27.20
2018-05-27T13:04:28.792Z,27.00
2018-05-27T13:06:55.966Z,27.20
2018-05-27T13:09:22.377Z,27.10
2018-05-27T13:11:48.782Z,27.10
2018-05-27T13:14:15.179Z,27.20
2018-05-27T13:16:41.718Z,27.20
2018-05-27T13:19:08.721Z,27.70
2018-05-27T13:21:35.108Z,27.60
2018-05-27T13:24:01.521Z,27.30
2018-05-27T13:26:28.640Z,27.20
2018-05-27T13:28:55.779Z,27.30
2018-05-27T13:31:22.155Z,27.20
2018-05-27T13:33:48.564Z,27.30
2018-05-27T13:36:14.972Z,27.30
2018-05-27T13:38:41.365Z,27.20
2018-05-27T13:41:07.757Z,27.40
2018-05-27T13:43:34.160Z,27.60
2018-05-27T13:46:00.554Z,27.70
2018-05-27T13:48:27.738Z,27.60
2018-05-27T13:50:54.144Z,27.50
2018-05-27T13:53:21.244Z,27.60
2018-05-27T13:55:47.671Z,27.50
2018-05-27T13:58:14.069Z,27.70
2018-05-27T14:00:40.453Z,27.60
2018-05-27T14:03:06.844Z,27.50
2018-05-27T14:05:33.222Z,27.60
2018-05-27T14:07:59.652Z,27.50
2018-05-27T14:10:26.061Z,27.70
2018-05-27T14:12:52.452Z,27.60
2018-05-27T14:15:19.572Z,27.50
2018-05-27T14:17:45.965Z,27.40
2018-05-27T14:20:12.381Z,27.70
2018-05-27T14:22:39.520Z,28.00
2018-05-27T14:25:06.668Z,28.20
2018-05-27T14:27:33.037Z,28.10
2018-05-27T14:30:00.240Z,28.30
2018-05-27T14:32:26.624Z,28.20
2018-05-27T14:34:53.015Z,28.10
2018-05-27T14:37:19.383Z,28.20
2018-05-27T14:39:45.781Z,28.40
2018-05-27T14:42:12.154Z,28.30
2018-05-27T14:44:38.565Z,28.00
2018-05-27T14:47:05.662Z,27.70
2018-05-27T14:49:32.070Z,27.60
2018-05-27T14:51:58.471Z,27.60
2018-05-27T14:54:25.631Z,27.50
2018-05-27T14:56:52.796Z,27.70
2018-05-27T14:59:19.906Z,27.80
2018-05-27T15:01:46.296Z,27.80
2018-05-27T15:04:12.677Z,28.10
2018-05-27T15:06:39.097Z,28.00
2018-05-27T15:09:05.504Z,28.00
2018-05-27T15:11:31.903Z,28.10
2018-05-27T15:13:59.023Z,28.00
2018-05-27T15:16:25.423Z,28.00
2018-05-27T15:18:51.800Z,28.00
2018-05-27T15:21:18.198Z,27.90
2018-05-27T15:23:44.563Z,28.10
2018-05-27T15:26:10.973Z,28.40
2018-05-27T15:28:37.344Z,28.40
2018-05-27T15:31:03.747Z,28.40
2018-05-27T15:33:30.138Z,28.40
2018-05-27T15:35:57.270Z,28.10
2018-05-27T15:38:23.692Z,28.10
2018-05-27T15:40:50.053Z,28.10
2018-05-27T15:43:17.183Z,27.90
2018-05-27T15:45:43.543Z,27.90
2018-05-27T15:48:10.697Z,28.10
2018-05-27T15:50:37.812Z,28.20
2018-05-27T15:53:04.207Z,28.10
2018-05-27T15:55:30.563Z,28.10
2018-05-27T15:57:56.964Z,28.30
2018-05-27T16:00:23.332Z,28.20
2018-05-27T16:02:49.757Z,28.20
2018-05-27T16:05:16.147Z,28.30
2018-05-27T16:07:43.308Z,28.30
2018-05-27T16:10:13.016Z,28.40
2018-05-27T16:12:39.789Z,28.30
2018-05-27T16:15:06.659Z,28.30
2018-05-27T16:17:34.224Z,28.30
2018-05-27T16:20:01.172Z,28.30
2018-05-27T16:22:27.545Z,28.50
2018-05-27T16:24:54.689Z,28.80
2018-05-27T16:27:21.798Z,29.00
2018-05-27T16:29:48.191Z,28.90
2018-05-27T16:32:14.607Z,29.30
2018-05-27T16:34:41.729Z,30.20
2018-05-27T16:37:08.352Z,30.10
2018-05-27T16:39:34.720Z,30.80
2018-05-27T16:42:01.845Z,31.10
2018-05-27T16:44:28.233Z,31.00
2018-05-27T16:46:54.636Z,31.40
2018-05-27T16:49:21.785Z,30.80
2018-05-27T16:51:50.397Z,30.70
2018-05-27T16:54:16.825Z,30.70
2018-05-27T16:56:43.980Z,30.70
2018-05-27T16:59:10.513Z,30.60
2018-05-27T17:01:37.656Z,30.40
2018-05-27T17:04:04.768Z,30.70
2018-05-27T17:06:31.192Z,30.60
2018-05-27T17:08:57.647Z,30.70
2018-05-27T17:11:24.760Z,31.00
2018-05-27T17:13:54.525Z,31.00
2018-05-27T17:16:22.662Z,31.40
2018-05-27T17:18:50.938Z,31.40
2018-05-27T17:21:19.536Z,31.20
2018-05-27T17:23:47.497Z,31.20
2018-05-27T17:26:15.752Z,30.60
2018-05-27T17:28:44.888Z,29.80
2018-05-27T17:31:13.649Z,30.40
2018-05-27T17:33:42.883Z,30.40
2018-05-27T17:36:11.854Z,30.50
2018-05-27T17:38:41.360Z,30.30
2018-05-27T17:41:09.920Z,30.20
2018-05-27T17:43:38.430Z,29.70
2018-05-27T17:46:08.182Z,28.20
2018-05-27T17:48:34.866Z,28.10
2018-05-27T17:51:02.037Z,27.60
2018-05-27T17:53:28.453Z,27.10
2018-05-27T17:55:54.888Z,27.00
2018-05-27T17:58:25.454Z,26.80
2018-05-27T18:00:55.601Z,26.50
2018-05-27T18:03:24.488Z,26.20
2018-05-27T18:05:52.212Z,25.70
2018-05-27T18:08:23.004Z,25.60
2018-05-27T18:10:53.997Z,25.20
2018-05-27T18:13:21.804Z,25.20
2018-05-27T18:15:50.447Z,24.90
2018-05-27T18:18:16.964Z,24.80
2018-05-27T18:20:47.209Z,24.70
2018-05-27T18:23:19.081Z,24.60
2018-05-27T18:25:45.794Z,24.50
2018-05-27T18:28:16.496Z,24.40
2018-05-27T18:30:48.746Z,24.40
2018-05-27T18:33:15.225Z,24.30
2018-05-27T18:35:45.242Z,24.20
2018-05-27T18:38:15.317Z,24.10
2018-05-27T18:40:43.265Z,23.80
2018-05-27T18:43:13.765Z,23.60
2018-05-27T18:45:41.768Z,23.50
2018-05-27T18:48:08.923Z,23.40
2018-05-27T18:50:36.216Z,23.10
2018-05-27T18:53:06.780Z,23.00
2018-05-27T18:55:37.037Z,22.90
2018-05-27T18:58:06.041Z,23.00
2018-05-27T19:00:37.556Z,23.00
2018-05-27T19:03:08.969Z,22.90
2018-05-27T19:05:40.322Z,22.40
2018-05-27T19:08:11.802Z,22.40
2018-05-27T19:10:41.141Z,22.20
2018-05-27T19:13:11.367Z,21.70
2018-05-27T19:15:41.239Z,21.60
2018-05-27T19:18:11.201Z,21.20
2018-05-27T19:20:41.461Z,21.10
2018-05-27T19:23:11.703Z,20.90
2018-05-27T19:25:42.293Z,20.80
2018-05-27T19:28:12.030Z,20.50
2018-05-27T19:30:41.751Z,20.40
2018-05-27T19:33:11.842Z,20.20
2018-05-27T19:35:42.388Z,20.10
2018-05-27T19:38:12.224Z,19.90
2018-05-27T19:40:41.770Z,19.80
2018-05-27T19:43:12.709Z,19.80
2018-05-27T19:45:39.155Z,19.70
2018-05-27T19:48:08.509Z,19.70
2018-05-27T19:50:37.362Z,19.60
2018-05-27T19:53:04.905Z,19.70
2018-05-27T19:55:35.076Z,19.50
2018-05-27T19:58:05.102Z,19.50
2018-05-27T20:00:34.386Z,19.40
2018-05-27T20:03:04.286Z,19.40
2018-05-27T20:05:34.185Z,19.20
2018-05-27T20:08:03.643Z,18.90
2018-05-27T20:10:32.640Z,18.80
2018-05-27T20:13:01.878Z,18.70
2018-05-27T20:15:31.008Z,18.60
2018-05-27T20:18:00.555Z,18.60
2018-05-27T20:20:29.283Z,18.50
2018-05-27T20:22:55.672Z,18.60
2018-05-27T20:25:25.271Z,18.40
2018-05-27T20:27:51.719Z,18.30
2018-05-27T20:30:21.880Z,18.40
2018-05-27T20:32:52.134Z,18.30
2018-05-27T20:37:37.001Z,18.30
2018-05-27T20:40:03.428Z,18.20
2018-05-27T20:42:29.807Z,18.10
2018-05-27T20:44:58.157Z,18.10
2018-05-27T20:47:24.545Z,18.00
2018-05-27T20:49:51.051Z,18.00
2018-05-27T20:52:17.462Z,17.90
2018-05-27T20:54:45.303Z,17.70
2018-05-27T20:57:12.630Z,17.60
2018-05-27T20:59:39.712Z,17.50
2018-05-27T21:02:06.910Z,17.50
2018-05-27T21:04:34.093Z,17.60
2018-05-27T21:07:00.492Z,17.50
2018-05-27T21:09:27.649Z,17.50
2018-05-27T21:11:54.804Z,17.50
2018-05-27T21:14:21.927Z,17.30
2018-05-27T21:16:48.332Z,17.20
2018-05-27T21:19:14.779Z,17.30
2018-05-27T21:21:41.193Z,17.10
2018-05-27T21:24:07.603Z,17.00
2018-05-27T21:26:34.020Z,16.90
2018-05-27T21:29:01.168Z,17.00
2018-05-27T21:31:28.319Z,16.90
2018-05-27T21:33:54.713Z,16.90
2018-05-27T21:36:21.117Z,16.80
2018-05-27T21:38:47.521Z,16.80
2018-05-27T21:41:13.887Z,16.70
2018-05-27T21:43:40.279Z,16.80
2018-05-27T21:46:06.695Z,16.80
2018-05-27T21:48:33.100Z,17.10
2018-05-27T21:50:59.483Z,17.30
2018-05-27T21:53:25.897Z,17.40
2018-05-27T21:55:52.276Z,17.30
2018-05-27T21:58:19.411Z,17.80
2018-05-27T22:00:45.855Z,17.80
2018-05-27T22:03:12.965Z,17.90
2018-05-27T22:05:39.371Z,17.90
2018-05-27T22:08:05.784Z,17.90
2018-05-27T22:10:32.943Z,17.80
2018-05-27T22:12:59.310Z,17.80
2018-05-27T22:15:25.734Z,17.80
2018-05-27T22:17:52.114Z,17.70
2018-05-27T22:20:18.515Z,17.70
2018-05-27T22:22:44.890Z,17.60
2018-05-27T22:25:12.039Z,17.40
2018-05-27T22:27:39.167Z,17.30
2018-05-27T22:30:05.588Z,17.20
2018-05-27T22:32:31.991Z,17.00
2018-05-27T22:34:58.380Z,16.80
2018-05-27T22:37:24.791Z,16.60
2018-05-27T22:39:51.175Z,16.60
2018-05-27T22:42:18.309Z,16.30
2018-05-27T22:44:44.684Z,16.30
2018-05-27T22:47:11.108Z,16.10
2018-05-27T22:49:37.507Z,16.10
2018-05-27T22:52:03.889Z,16.00
2018-05-27T22:54:30.280Z,16.00
2018-05-27T22:56:57.405Z,16.00
2018-05-27T22:59:23.799Z,16.00
2018-05-27T23:01:50.198Z,16.00
2018-05-27T23:04:16.567Z,15.90
2018-05-27T23:06:42.954Z,15.90
2018-05-27T23:09:09.358Z,15.80
2018-05-27T23:11:35.749Z,15.80
2018-05-27T23:14:02.152Z,15.70
2018-05-27T23:16:28.560Z,15.70
2018-05-27T23:18:54.919Z,15.70
2018-05-27T23:21:21.319Z,15.50
2018-05-27T23:23:47.738Z,15.50
2018-05-27T23:26:14.140Z,15.50
2018-05-27T23:28:41.282Z,15.60
2018-05-27T23:31:07.657Z,15.50
2018-05-27T23:33:34.048Z,15.60
2018-05-27T23:36:00.462Z,15.50
2018-05-27T23:38:26.831Z,15.50
2018-05-27T23:40:54.005Z,15.40
2018-05-27T23:43:20.411Z,15.30
2018-05-27T23:45:47.545Z,15.30
2018-05-27T23:48:13.960Z,15.20
2018-05-27T23:50:40.366Z,15.30
2018-05-27T23:53:06.760Z,15.30
2018-05-27T23:55:33.180Z,15.20
2018-05-27T23:57:59.547Z,15.20
